Time;durP1;ratioP1;P1;durP2;ratioP2;P2;SDS_P1;SDS_P2;PMS_P1;PMS_P2;Temp;Humidity;BMP_temperature;BMP_pressure;BME280_temperature;BME280_humidity;BME280_pressure;Samples;Min_cycle;Max_cycle;Signal;HPM_P1;HPM_P2
2023/06/11 00:01:41;;;;;;;12.05;5.50;;;;;;;;;;5147129;27;20047;-77
2023/06/11 00:04:07;;;;;;;13.00;5.72;;;;;;;;;;5154989;27;20074;-77
2023/06/11 00:06:33;;;;;;;13.23;5.60;;;;;;;;;;5134501;27;20035;-77
2023/06/11 00:09:00;;;;;;;9.90;5.18;;;;;;;;;;5134775;27;20043;-76
2023/06/11 00:11:26;;;;;;;12.23;5.65;;;;;;;;;;5136064;27;20390;-77
2023/06/11 00:13:53;;;;;;;10.38;5.10;;;;;;;;;;5136828;27;20099;-77
2023/06/11 00:16:19;;;;;;;9.90;5.07;;;;;;;;;;5136769;27;20465;-77
2023/06/11 00:18:46;;;;;;;10.70;5.00;;;;;;;;;;5122455;27;20503;-77
2023/06/11 00:21:14;;;;;;;11.77;5.20;;;;;;;;;;5137485;27;20039;-78
2023/06/11 00:23:40;;;;;;;10.23;5.43;;;;;;;;;;5157215;27;20051;-78
2023/06/11 00:26:10;;;;;;;10.60;5.28;;;;;;;;;;5139178;27;20381;-77
2023/06/11 00:28:36;;;;;;;13.07;5.60;;;;;;;;;;5138619;27;20138;-76
2023/06/11 00:31:06;;;;;;;11.57;5.68;;;;;;;;;;5138504;27;20125;-77
2023/06/11 00:33:32;;;;;;;11.00;5.43;;;;;;;;;;5147566;27;20387;-76
2023/06/11 00:35:58;;;;;;;8.95;5.53;;;;;;;;;;5138657;27;20091;-77
2023/06/11 00:38:25;;;;;;;11.10;5.63;;;;;;;;;;5117622;27;20111;-77
2023/06/11 00:40:51;;;;;;;10.77;5.53;;;;;;;;;;5136066;27;20043;-76
2023/06/11 00:43:21;;;;;;;12.90;5.90;;;;;;;;;;5136260;27;20051;-78
2023/06/11 00:45:50;;;;;;;11.60;6.10;;;;;;;;;;5120336;27;20046;-77
2023/06/11 00:48:16;;;;;;;10.70;6.07;;;;;;;;;;5156406;27;20043;-76
2023/06/11 00:50:47;;;;;;;8.25;6.07;;;;;;;;;;5137746;27;20042;-76
2023/06/11 00:53:13;;;;;;;11.65;6.00;;;;;;;;;;5156347;27;20056;-76
2023/06/11 00:55:40;;;;;;;11.35;5.88;;;;;;;;;;5155230;27;20035;-77
2023/06/11 00:58:13;;;;;;;9.70;6.07;;;;;;;;;;5136975;27;20543;-76
2023/06/11 01:00:50;;;;;;;12.23;6.05;;;;;;;;;;5122406;27;20043;-77
2023/06/11 01:03:21;;;;;;;9.98;5.78;;;;;;;;;;5152963;27;20050;-76
2023/06/11 01:05:54;;;;;;;9.30;5.50;;;;;;;;;;5129418;27;20369;-77
2023/06/11 01:08:22;;;;;;;13.45;6.35;;;;;;;;;;5148896;27;20054;-77
2023/06/11 01:10:49;;;;;;;10.70;6.03;;;;;;;;;;5137002;27;20042;-77
2023/06/11 01:13:15;;;;;;;8.43;5.43;;;;;;;;;;5138033;27;20035;-76
2023/06/11 01:15:41;;;;;;;9.43;5.93;;;;;;;;;;5156151;27;20050;-77
2023/06/11 01:18:10;;;;;;;11.60;5.82;;;;;;;;;;5137583;27;20078;-77
2023/06/11 01:20:45;;;;;;;11.90;5.85;;;;;;;;;;5155167;27;20050;-76
2023/06/11 01:23:16;;;;;;;12.10;5.78;;;;;;;;;;5151392;27;20051;-76
2023/06/11 01:25:46;;;;;;;9.65;6.07;;;;;;;;;;5115971;27;20411;-77
2023/06/11 01:28:16;;;;;;;12.90;6.30;;;;;;;;;;5135450;27;20167;-77
2023/06/11 01:30:45;;;;;;;12.20;6.28;;;;;;;;;;5134842;27;20050;-77
2023/06/11 01:33:13;;;;;;;11.13;6.20;;;;;;;;;;5133287;27;20149;-77
2023/06/11 01:35:40;;;;;;;11.57;6.28;;;;;;;;;;5119791;27;20046;-76
2023/06/11 01:38:08;;;;;;;9.25;6.28;;;;;;;;;;5154763;27;20415;-78
2023/06/11 01:40:34;;;;;;;9.27;5.95;;;;;;;;;;5154984;27;20492;-78
2023/06/11 01:43:02;;;;;;;11.30;6.60;;;;;;;;;;5137416;27;20077;-78
2023/06/11 01:45:32;;;;;;;11.00;6.45;;;;;;;;;;5137109;27;20493;-77
2023/06/11 01:47:58;;;;;;;11.13;6.55;;;;;;;;;;5136883;27;20048;-77
2023/06/11 01:50:25;;;;;;;11.05;6.43;;;;;;;;;;5131877;27;20046;-77
2023/06/11 01:52:51;;;;;;;15.70;6.82;;;;;;;;;;5136531;27;20118;-77
2023/06/11 01:55:17;;;;;;;10.77;6.45;;;;;;;;;;5136878;27;20108;-77
2023/06/11 01:57:43;;;;;;;10.63;6.35;;;;;;;;;;5154838;27;20035;-77
2023/06/11 02:00:10;;;;;;;8.60;6.70;;;;;;;;;;5155401;27;20042;-77
2023/06/11 02:02:36;;;;;;;10.90;6.53;;;;;;;;;;5120658;27;20396;-77
2023/06/11 02:05:03;;;;;;;12.52;6.82;;;;;;;;;;5155330;27;20050;-78
2023/06/11 02:07:29;;;;;;;12.23;6.90;;;;;;;;;;5135751;27;20069;-77
2023/06/11 02:09:55;;;;;;;12.15;6.72;;;;;;;;;;5119622;27;20047;-77
2023/06/11 02:12:21;;;;;;;9.80;6.78;;;;;;;;;;5151284;27;20043;-77
2023/06/11 02:14:47;;;;;;;10.77;7.40;;;;;;;;;;5148311;27;20042;-77
2023/06/11 02:17:13;;;;;;;10.85;7.18;;;;;;;;;;5135335;27;20158;-77
2023/06/11 02:19:39;;;;;;;10.93;6.72;;;;;;;;;;5134238;27;20112;-77
2023/06/11 02:22:06;;;;;;;10.60;6.80;;;;;;;;;;5134028;27;20511;-77
2023/06/11 02:24:32;;;;;;;13.18;7.75;;;;;;;;;;5149349;27;20105;-78
2023/06/11 02:26:59;;;;;;;16.73;7.72;;;;;;;;;;5117239;27;20038;-77
2023/06/11 02:29:25;;;;;;;11.50;7.18;;;;;;;;;;5117500;27;20054;-77
2023/06/11 02:31:51;;;;;;;12.45;7.10;;;;;;;;;;5137030;27;20122;-77
2023/06/11 02:34:17;;;;;;;12.27;7.10;;;;;;;;;;5128128;27;20051;-77
2023/06/11 02:36:43;;;;;;;11.18;7.50;;;;;;;;;;5154269;27;20057;-77
2023/06/11 02:39:09;;;;;;;11.98;7.65;;;;;;;;;;5135161;27;20076;-77
2023/06/11 02:41:35;;;;;;;11.45;7.88;;;;;;;;;;5144063;27;20045;-77
2023/06/11 02:44:01;;;;;;;13.80;7.90;;;;;;;;;;5145024;27;20058;-77
2023/06/11 02:46:27;;;;;;;10.80;7.28;;;;;;;;;;5135320;27;20039;-77
2023/06/11 02:48:54;;;;;;;12.30;7.40;;;;;;;;;;5135441;27;20035;-77
2023/06/11 02:51:20;;;;;;;12.60;7.88;;;;;;;;;;5135375;27;20074;-77
2023/06/11 02:53:46;;;;;;;9.95;8.00;;;;;;;;;;5128131;27;20038;-77
2023/06/11 02:56:12;;;;;;;10.43;7.93;;;;;;;;;;5133605;27;20043;-77
2023/06/11 02:58:38;;;;;;;10.85;7.82;;;;;;;;;;5134675;27;20072;-77
2023/06/11 03:01:04;;;;;;;12.32;7.38;;;;;;;;;;5138096;27;20042;-77
2023/06/11 03:03:30;;;;;;;11.82;8.10;;;;;;;;;;5151324;27;20502;-77
2023/06/11 03:05:56;;;;;;;11.75;7.72;;;;;;;;;;5142647;27;20039;-77
2023/06/11 03:08:22;;;;;;;11.05;8.07;;;;;;;;;;5134999;27;20051;-77
2023/06/11 03:10:48;;;;;;;10.20;7.68;;;;;;;;;;5119719;27;20091;-78
2023/06/11 03:13:15;;;;;;;10.77;7.85;;;;;;;;;;5108731;27;20420;-77
2023/06/11 03:15:41;;;;;;;13.43;8.57;;;;;;;;;;5142835;27;20095;-77
2023/06/11 03:18:07;;;;;;;13.00;8.57;;;;;;;;;;5135473;27;20078;-78
2023/06/11 03:20:33;;;;;;;13.32;8.00;;;;;;;;;;5153619;27;20044;-77
2023/06/11 03:22:59;;;;;;;10.80;8.20;;;;;;;;;;5116786;27;20554;-77
2023/06/11 03:25:25;;;;;;;11.95;8.25;;;;;;;;;;5150958;27;20039;-77
2023/06/11 03:27:51;;;;;;;11.40;7.93;;;;;;;;;;5134144;27;20070;-77
2023/06/11 03:30:17;;;;;;;12.00;8.50;;;;;;;;;;5152020;27;20055;-78
2023/06/11 03:32:43;;;;;;;11.05;8.35;;;;;;;;;;5152679;27;20535;-78
2023/06/11 03:35:10;;;;;;;12.88;8.15;;;;;;;;;;5118736;28;20039;-78
2023/06/11 03:37:36;;;;;;;11.13;8.13;;;;;;;;;;5138075;27;20038;-78
2023/06/11 03:40:02;;;;;;;13.10;8.32;;;;;;;;;;5148881;27;20039;-77
2023/06/11 03:42:31;;;;;;;11.85;8.13;;;;;;;;;;5129267;27;20134;-78
2023/06/11 03:44:57;;;;;;;11.25;8.73;;;;;;;;;;5128978;27;20054;-78
2023/06/11 03:47:23;;;;;;;10.27;8.13;;;;;;;;;;5140413;27;20047;-78
2023/06/11 03:49:50;;;;;;;10.65;8.20;;;;;;;;;;5132990;27;20431;-78
2023/06/11 03:52:16;;;;;;;14.05;8.27;;;;;;;;;;5131591;27;20480;-78
2023/06/11 03:54:42;;;;;;;12.10;8.68;;;;;;;;;;5124631;27;20046;-78
2023/06/11 03:57:08;;;;;;;11.20;8.50;;;;;;;;;;5141661;27;20069;-78
2023/06/11 03:59:34;;;;;;;11.82;8.77;;;;;;;;;;5114314;28;20039;-78
2023/06/11 04:02:01;;;;;;;10.63;8.25;;;;;;;;;;5125388;27;20459;-77
2023/06/11 04:04:27;;;;;;;12.75;9.18;;;;;;;;;;5144267;27;20120;-77
2023/06/11 04:06:53;;;;;;;12.90;8.77;;;;;;;;;;5114288;28;20102;-76
2023/06/11 04:09:19;;;;;;;11.48;9.00;;;;;;;;;;5143515;27;20050;-77
2023/06/11 04:11:45;;;;;;;11.40;9.15;;;;;;;;;;5151490;27;20045;-77
2023/06/11 04:14:11;;;;;;;11.75;8.98;;;;;;;;;;5144820;27;20134;-76
2023/06/11 04:16:37;;;;;;;11.98;8.88;;;;;;;;;;5151090;27;20091;-76
2023/06/11 04:19:04;;;;;;;11.25;8.73;;;;;;;;;;5152948;27;20043;-77
2023/06/11 04:21:30;;;;;;;12.82;9.05;;;;;;;;;;5152756;27;20135;-77
2023/06/11 04:23:56;;;;;;;10.73;8.50;;;;;;;;;;5152683;27;20085;-77
2023/06/11 04:26:23;;;;;;;10.30;8.40;;;;;;;;;;5136635;27;20039;-77
2023/06/11 04:28:50;;;;;;;11.85;9.15;;;;;;;;;;5114987;27;20066;-76
2023/06/11 04:31:16;;;;;;;10.80;8.90;;;;;;;;;;5132744;27;20185;-77
2023/06/11 04:33:42;;;;;;;13.02;9.10;;;;;;;;;;5132104;28;20047;-77
2023/06/11 04:36:09;;;;;;;10.48;8.60;;;;;;;;;;5144836;27;20121;-77
2023/06/11 04:38:36;;;;;;;13.07;8.65;;;;;;;;;;5152631;27;20511;-77
2023/06/11 04:41:11;;;;;;;14.05;9.30;;;;;;;;;;5148422;27;20039;-77
2023/06/11 04:43:38;;;;;;;11.50;8.70;;;;;;;;;;5132259;27;20051;-77
2023/06/11 04:46:04;;;;;;;9.73;8.68;;;;;;;;;;5142738;27;20049;-77
2023/06/11 04:48:34;;;;;;;11.43;9.07;;;;;;;;;;5137112;27;20061;-77
2023/06/11 04:51:00;;;;;;;11.90;8.80;;;;;;;;;;5136863;27;20039;-77
2023/06/11 04:53:30;;;;;;;12.77;8.75;;;;;;;;;;5145760;27;20065;-77
2023/06/11 04:55:57;;;;;;;12.52;9.18;;;;;;;;;;5135277;27;20074;-77
2023/06/11 04:58:27;;;;;;;12.50;8.80;;;;;;;;;;5131575;27;20126;-77
2023/06/11 05:00:57;;;;;;;10.57;8.73;;;;;;;;;;5147242;27;20043;-77
2023/06/11 05:03:24;;;;;;;11.00;8.65;;;;;;;;;;5149096;27;20035;-77
2023/06/11 05:05:51;;;;;;;10.60;8.43;;;;;;;;;;5139247;27;20071;-77
2023/06/11 05:08:25;;;;;;;11.82;8.60;;;;;;;;;;5149867;27;20050;-78
2023/06/11 05:10:51;;;;;;;14.13;8.88;;;;;;;;;;5154438;27;20047;-77
2023/06/11 05:13:27;;;;;;;12.05;8.68;;;;;;;;;;5138104;27;20042;-78
2023/06/11 05:15:53;;;;;;;13.25;8.15;;;;;;;;;;5156344;27;20568;-78
2023/06/11 05:18:20;;;;;;;14.15;8.57;;;;;;;;;;5137165;27;20095;-77
2023/06/11 05:20:48;;;;;;;13.02;8.98;;;;;;;;;;5155433;27;20102;-77
2023/06/11 05:23:15;;;;;;;13.00;8.45;;;;;;;;;;5140948;27;20054;-78
2023/06/11 05:25:46;;;;;;;9.25;8.30;;;;;;;;;;5147794;27;20056;-78
2023/06/11 05:28:13;;;;;;;11.88;8.63;;;;;;;;;;5141400;27;20522;-74
2023/06/11 05:30:45;;;;;;;12.75;8.32;;;;;;;;;;5155635;27;20505;-74
2023/06/11 05:33:11;;;;;;;13.95;8.30;;;;;;;;;;5156099;27;20041;-73
2023/06/11 05:35:38;;;;;;;11.65;9.23;;;;;;;;;;5155780;27;20053;-74
2023/06/11 05:38:06;;;;;;;12.07;8.80;;;;;;;;;;5137442;27;20457;-73
2023/06/11 05:40:32;;;;;;;11.93;8.15;;;;;;;;;;5154237;27;20047;-74
2023/06/11 05:42:58;;;;;;;13.10;8.60;;;;;;;;;;5155115;27;20077;-74
2023/06/11 05:45:25;;;;;;;11.60;8.25;;;;;;;;;;5155600;27;20103;-74
2023/06/11 05:47:51;;;;;;;11.68;8.63;;;;;;;;;;5155894;27;20050;-73
2023/06/11 05:50:17;;;;;;;13.00;8.27;;;;;;;;;;5154617;27;20062;-73
2023/06/11 05:52:44;;;;;;;9.50;7.93;;;;;;;;;;5154360;27;20034;-74
2023/06/11 05:55:10;;;;;;;10.23;8.38;;;;;;;;;;5136452;27;20051;-74
2023/06/11 05:57:37;;;;;;;11.77;8.60;;;;;;;;;;5155651;27;20049;-74
2023/06/11 06:00:06;;;;;;;12.80;8.35;;;;;;;;;;5121933;27;20163;-74
2023/06/11 06:02:32;;;;;;;11.07;8.13;;;;;;;;;;5145995;27;20043;-73
2023/06/11 06:04:58;;;;;;;12.63;8.57;;;;;;;;;;5151754;27;20455;-73
2023/06/11 06:07:24;;;;;;;10.18;8.30;;;;;;;;;;5131863;27;20099;-73
2023/06/11 06:09:50;;;;;;;10.77;8.32;;;;;;;;;;5131441;27;20057;-73
2023/06/11 06:12:16;;;;;;;14.55;8.70;;;;;;;;;;5152179;27;20043;-72
2023/06/11 06:14:42;;;;;;;10.27;8.10;;;;;;;;;;5134689;27;20145;-73
2023/06/11 06:17:08;;;;;;;13.18;8.95;;;;;;;;;;5134032;27;20126;-72
2023/06/11 06:19:34;;;;;;;12.98;8.65;;;;;;;;;;5114754;27;20051;-73
2023/06/11 06:22:00;;;;;;;12.15;8.55;;;;;;;;;;5115864;27;20050;-72
2023/06/11 06:24:26;;;;;;;11.82;7.82;;;;;;;;;;5133973;27;20039;-73
2023/06/11 06:26:56;;;;;;;10.38;8.45;;;;;;;;;;5116099;27;20118;-73
2023/06/11 06:29:23;;;;;;;11.77;8.57;;;;;;;;;;5134236;27;20039;-72
2023/06/11 06:31:49;;;;;;;10.73;8.18;;;;;;;;;;5133980;27;20487;-72
2023/06/11 06:34:15;;;;;;;9.57;8.02;;;;;;;;;;5134014;27;20096;-72
2023/06/11 06:36:41;;;;;;;14.68;8.30;;;;;;;;;;5133977;27;20047;-72
2023/06/11 06:39:07;;;;;;;10.32;8.73;;;;;;;;;;5137524;27;20035;-73
2023/06/11 06:41:33;;;;;;;12.10;8.48;;;;;;;;;;5154571;27;20566;-72
2023/06/11 06:44:00;;;;;;;12.25;8.82;;;;;;;;;;5135488;27;20121;-73
2023/06/11 06:46:26;;;;;;;17.00;8.75;;;;;;;;;;5134806;27;20053;-72
2023/06/11 06:48:52;;;;;;;12.52;7.97;;;;;;;;;;5131552;27;20035;-72
2023/06/11 06:51:20;;;;;;;11.73;7.82;;;;;;;;;;5114267;27;20399;-73
2023/06/11 06:53:47;;;;;;;15.10;8.15;;;;;;;;;;5133388;27;20051;-73
2023/06/11 06:56:13;;;;;;;12.05;8.50;;;;;;;;;;5145993;27;20046;-72
2023/06/11 06:58:39;;;;;;;13.48;8.85;;;;;;;;;;5133700;27;20039;-73
2023/06/11 07:01:05;;;;;;;11.45;8.32;;;;;;;;;;5124492;27;20117;-72
2023/06/11 07:03:33;;;;;;;11.43;7.95;;;;;;;;;;5154434;27;20045;-73
2023/06/11 07:05:59;;;;;;;13.07;8.52;;;;;;;;;;5150751;27;20038;-73
2023/06/11 07:08:26;;;;;;;9.48;7.85;;;;;;;;;;5123702;27;20047;-72
2023/06/11 07:10:53;;;;;;;14.90;8.13;;;;;;;;;;5138232;27;20042;-73
2023/06/11 07:13:20;;;;;;;11.43;8.63;;;;;;;;;;5142699;27;20505;-73
2023/06/11 07:15:46;;;;;;;12.70;8.25;;;;;;;;;;5118870;27;20070;-72
2023/06/11 07:18:12;;;;;;;9.48;7.40;;;;;;;;;;5145462;27;20087;-72
2023/06/11 07:20:38;;;;;;;13.38;8.30;;;;;;;;;;5115505;27;20771;-79
2023/06/11 07:23:05;;;;;;;11.25;8.60;;;;;;;;;;5146167;27;20087;-76
2023/06/11 07:25:31;;;;;;;11.73;7.97;;;;;;;;;;5121922;27;20082;-77
2023/06/11 07:27:59;;;;;;;11.00;8.15;;;;;;;;;;5153696;27;20043;-76
2023/06/11 07:30:26;;;;;;;10.88;8.10;;;;;;;;;;5147645;27;20069;-76
2023/06/11 07:32:53;;;;;;;14.75;7.47;;;;;;;;;;5134313;27;20410;-75
2023/06/11 07:35:22;;;;;;;11.45;8.00;;;;;;;;;;5133361;27;20391;-76
2023/06/11 07:37:49;;;;;;;14.95;8.27;;;;;;;;;;5151584;27;20095;-76
2023/06/11 07:40:15;;;;;;;12.20;8.63;;;;;;;;;;5151379;27;20511;-76
2023/06/11 07:42:42;;;;;;;11.32;7.70;;;;;;;;;;5152127;27;20085;-77
2023/06/11 07:45:08;;;;;;;10.98;7.78;;;;;;;;;;5152001;27;20385;-76
2023/06/11 07:47:35;;;;;;;15.30;8.60;;;;;;;;;;5152198;27;20047;-77
2023/06/11 07:50:01;;;;;;;9.95;7.88;;;;;;;;;;5133088;27;20047;-76
2023/06/11 07:52:28;;;;;;;11.70;8.10;;;;;;;;;;5153779;27;20035;-77
2023/06/11 07:54:54;;;;;;;10.68;7.35;;;;;;;;;;5135220;27;20175;-76
2023/06/11 07:57:20;;;;;;;12.68;8.23;;;;;;;;;;5135638;27;20035;-77
2023/06/11 07:59:47;;;;;;;10.00;7.85;;;;;;;;;;5153389;27;20159;-76
2023/06/11 08:02:14;;;;;;;10.68;7.45;;;;;;;;;;5153809;27;20399;-76
2023/06/11 08:04:40;;;;;;;11.30;8.52;;;;;;;;;;5135061;27;20129;-77
2023/06/11 08:07:06;;;;;;;9.60;7.75;;;;;;;;;;5153333;27;20073;-77
2023/06/11 08:09:35;;;;;;;16.27;8.30;;;;;;;;;;5153153;27;20051;-77
2023/06/11 08:12:02;;;;;;;12.90;8.15;;;;;;;;;;5134709;27;20118;-77
2023/06/11 08:14:28;;;;;;;9.18;7.97;;;;;;;;;;5134993;27;20484;-77
2023/06/11 08:16:55;;;;;;;10.65;8.27;;;;;;;;;;5153483;27;20077;-77
2023/06/11 08:19:21;;;;;;;9.43;7.97;;;;;;;;;;5155756;27;20054;-77
2023/06/11 08:21:47;;;;;;;12.20;7.65;;;;;;;;;;5157247;27;20452;-77
2023/06/11 08:24:13;;;;;;;11.65;7.28;;;;;;;;;;5121845;27;20503;-77
2023/06/11 08:26:39;;;;;;;11.20;7.30;;;;;;;;;;5138854;27;20042;-77
2023/06/11 08:29:06;;;;;;;9.43;7.88;;;;;;;;;;5157139;27;20545;-77
2023/06/11 08:31:32;;;;;;;13.30;7.75;;;;;;;;;;5138629;27;20078;-77
2023/06/11 08:33:58;;;;;;;10.52;8.07;;;;;;;;;;5157070;27;20103;-77
2023/06/11 08:36:26;;;;;;;12.70;7.93;;;;;;;;;;5157252;27;20065;-77
2023/06/11 08:38:52;;;;;;;11.93;8.07;;;;;;;;;;5155190;27;20462;-77
2023/06/11 08:41:18;;;;;;;12.68;7.75;;;;;;;;;;5138587;27;20401;-77
2023/06/11 08:43:44;;;;;;;8.88;7.63;;;;;;;;;;5156747;27;20043;-77
2023/06/11 08:46:16;;;;;;;9.13;7.07;;;;;;;;;;5157281;27;20054;-77
2023/06/11 08:48:43;;;;;;;15.65;7.82;;;;;;;;;;5156618;27;20039;-77
2023/06/11 08:51:10;;;;;;;11.77;7.72;;;;;;;;;;5156740;27;20050;-77
2023/06/11 08:53:37;;;;;;;13.88;7.10;;;;;;;;;;5138174;27;20413;-77
2023/06/11 08:56:03;;;;;;;11.07;7.68;;;;;;;;;;5156901;27;20400;-78
2023/06/11 08:58:33;;;;;;;9.98;6.95;;;;;;;;;;5156618;27;20035;-74
2023/06/11 09:01:02;;;;;;;11.23;7.57;;;;;;;;;;5156415;27;20039;-77
2023/06/11 09:03:28;;;;;;;10.93;7.45;;;;;;;;;;5156625;27;20047;-77
2023/06/11 09:05:54;;;;;;;10.98;7.07;;;;;;;;;;5156546;27;20039;-78
2023/06/11 09:08:20;;;;;;;10.68;7.63;;;;;;;;;;5155949;27;20086;-77
2023/06/11 09:10:50;;;;;;;9.15;6.88;;;;;;;;;;5156429;27;20053;-78
2023/06/11 09:13:17;;;;;;;12.50;7.28;;;;;;;;;;5156369;27;20053;-77
2023/06/11 09:15:47;;;;;;;10.23;7.05;;;;;;;;;;5137825;27;20095;-78
2023/06/11 09:18:17;;;;;;;9.65;7.40;;;;;;;;;;5156424;27;20074;-77
2023/06/11 09:20:47;;;;;;;10.23;6.63;;;;;;;;;;5156192;27;20451;-77
2023/06/11 09:23:23;;;;;;;9.52;7.03;;;;;;;;;;5156501;27;20049;-77
2023/06/11 09:25:49;;;;;;;9.45;6.70;;;;;;;;;;5156441;27;20379;-78
2023/06/11 09:28:15;;;;;;;11.88;6.90;;;;;;;;;;5156122;27;20435;-78
2023/06/11 09:30:41;;;;;;;8.93;6.60;;;;;;;;;;5136353;27;20042;-77
2023/06/11 09:33:17;;;;;;;12.27;6.80;;;;;;;;;;5137569;27;20180;-78
2023/06/11 09:35:46;;;;;;;8.75;6.22;;;;;;;;;;5155524;27;20046;-77
2023/06/11 09:38:16;;;;;;;9.75;6.65;;;;;;;;;;5135049;27;20058;-78
2023/06/11 09:40:46;;;;;;;9.68;6.32;;;;;;;;;;5135043;27;20042;-78
2023/06/11 09:43:13;;;;;;;7.63;6.57;;;;;;;;;;5155458;27;20070;-78
2023/06/11 09:45:39;;;;;;;9.73;6.30;;;;;;;;;;5155913;27;20042;-78
2023/06/11 09:48:05;;;;;;;7.90;6.45;;;;;;;;;;5155589;27;20499;-78
2023/06/11 09:50:33;;;;;;;12.23;6.63;;;;;;;;;;5155611;27;20114;-78
2023/06/11 09:53:03;;;;;;;7.88;6.30;;;;;;;;;;5155757;27;20081;-78
2023/06/11 09:55:35;;;;;;;8.95;6.85;;;;;;;;;;5155569;27;20137;-78
2023/06/11 09:58:02;;;;;;;9.95;6.00;;;;;;;;;;5155587;27;20050;-77
2023/06/11 10:00:29;;;;;;;7.63;5.78;;;;;;;;;;5155188;27;20039;-78
2023/06/11 10:02:56;;;;;;;7.47;5.88;;;;;;;;;;5136903;27;20429;-78
2023/06/11 10:05:22;;;;;;;10.40;6.30;;;;;;;;;;5136841;27;20146;-78
2023/06/11 10:08:03;;;;;;;7.53;6.28;;;;;;;;;;5155223;27;20050;-78
2023/06/11 10:10:32;;;;;;;10.35;6.55;;;;;;;;;;5119851;27;20085;-77
2023/06/11 10:12:58;;;;;;;7.47;5.78;;;;;;;;;;5136632;27;20134;-76
2023/06/11 10:15:24;;;;;;;8.57;5.95;;;;;;;;;;5155055;27;20068;-77
2023/06/11 10:17:52;;;;;;;10.15;5.95;;;;;;;;;;5154629;27;20129;-77
2023/06/11 10:20:19;;;;;;;7.55;5.50;;;;;;;;;;5134780;27;20324;-76
2023/06/11 10:22:45;;;;;;;7.50;5.60;;;;;;;;;;5155219;27;20038;-77
2023/06/11 10:25:12;;;;;;;9.55;5.93;;;;;;;;;;5154977;27;20054;-77
2023/06/11 10:27:39;;;;;;;9.05;5.75;;;;;;;;;;5154968;27;20090;-76
2023/06/11 10:30:08;;;;;;;7.65;5.60;;;;;;;;;;5154665;27;20472;-76
2023/06/11 10:32:34;;;;;;;8.95;5.28;;;;;;;;;;5135854;27;20053;-76
2023/06/11 10:35:03;;;;;;;8.57;5.53;;;;;;;;;;5154688;27;20394;-77
2023/06/11 10:37:29;;;;;;;9.23;4.85;;;;;;;;;;5136448;27;20042;-77
2023/06/11 10:39:56;;;;;;;7.55;4.82;;;;;;;;;;5153936;27;20058;-77
2023/06/11 10:42:23;;;;;;;6.60;5.05;;;;;;;;;;5154781;27;20050;-77
2023/06/11 10:44:49;;;;;;;7.65;5.50;;;;;;;;;;5135569;27;20046;-77
2023/06/11 10:47:16;;;;;;;7.47;5.70;;;;;;;;;;5154750;27;20078;-77
2023/06/11 10:49:42;;;;;;;9.00;5.25;;;;;;;;;;5154386;27;20042;-77
2023/06/11 10:52:08;;;;;;;7.18;5.18;;;;;;;;;;5154714;27;20042;-77
2023/06/11 10:54:35;;;;;;;7.95;5.07;;;;;;;;;;5135806;27;20045;-77
2023/06/11 10:57:02;;;;;;;7.07;5.25;;;;;;;;;;5136080;27;20390;-77
2023/06/11 10:59:29;;;;;;;7.15;5.00;;;;;;;;;;5154066;27;20054;-77
2023/06/11 11:01:56;;;;;;;9.57;5.00;;;;;;;;;;5151745;27;20042;-77
2023/06/11 11:04:22;;;;;;;6.75;4.90;;;;;;;;;;5153045;27;20043;-77
2023/06/11 11:06:51;;;;;;;7.18;4.80;;;;;;;;;;5154136;27;20110;-77
2023/06/11 11:09:23;;;;;;;8.25;5.18;;;;;;;;;;5153575;27;20149;-78
2023/06/11 11:11:50;;;;;;;9.45;4.65;;;;;;;;;;5153874;27;20099;-77
2023/06/11 11:14:17;;;;;;;9.88;4.80;;;;;;;;;;5153918;27;20050;-77
2023/06/11 11:16:47;;;;;;;7.28;4.63;;;;;;;;;;5154444;27;20055;-77
2023/06/11 11:19:13;;;;;;;6.30;4.53;;;;;;;;;;5153870;27;20483;-77
2023/06/11 11:21:40;;;;;;;7.07;3.95;;;;;;;;;;5153792;27;20493;-77
2023/06/11 11:24:12;;;;;;;7.13;4.18;;;;;;;;;;5118154;27;20095;-77
2023/06/11 11:26:45;;;;;;;7.05;3.78;;;;;;;;;;5153833;27;20051;-77
2023/06/11 11:29:15;;;;;;;6.80;3.95;;;;;;;;;;5135368;27;20078;-77
2023/06/11 11:31:41;;;;;;;6.28;3.50;;;;;;;;;;5153678;27;20057;-77
2023/06/11 11:34:07;;;;;;;5.78;3.42;;;;;;;;;;5153762;27;20082;-77
2023/06/11 11:36:34;;;;;;;7.07;3.45;;;;;;;;;;5135252;27;20046;-77
2023/06/11 11:39:11;;;;;;;6.57;3.22;;;;;;;;;;5153391;27;20086;-78
2023/06/11 11:41:50;;;;;;;5.32;3.40;;;;;;;;;;5153444;27;20054;-78
2023/06/11 11:44:16;;;;;;;5.50;3.38;;;;;;;;;;5135055;27;20086;-78
2023/06/11 11:46:42;;;;;;;8.00;3.20;;;;;;;;;;5153753;27;20054;-78
2023/06/11 11:49:10;;;;;;;6.10;3.75;;;;;;;;;;5153801;27;20042;-76
2023/06/11 11:51:40;;;;;;;5.20;3.50;;;;;;;;;;5153503;27;20047;-77
2023/06/11 11:54:07;;;;;;;7.15;3.42;;;;;;;;;;5155644;27;20043;-77
2023/06/11 11:56:35;;;;;;;5.82;3.50;;;;;;;;;;5158349;27;20050;-77
2023/06/11 11:59:01;;;;;;;5.57;3.38;;;;;;;;;;5157934;27;20038;-77
2023/06/11 12:01:32;;;;;;;7.72;3.47;;;;;;;;;;5157889;27;20054;-77
2023/06/11 12:04:00;;;;;;;6.93;3.75;;;;;;;;;;5157927;27;20117;-77
2023/06/11 12:06:26;;;;;;;5.55;3.47;;;;;;;;;;5139116;27;20049;-77
2023/06/11 12:08:52;;;;;;;7.30;3.95;;;;;;;;;;5138992;27;20395;-77
2023/06/11 12:11:18;;;;;;;5.75;3.65;;;;;;;;;;5138869;27;20042;-77
2023/06/11 12:13:45;;;;;;;4.72;3.70;;;;;;;;;;5157638;27;20057;-77
2023/06/11 12:16:11;;;;;;;6.45;3.70;;;;;;;;;;5139341;27;20073;-77
2023/06/11 12:18:37;;;;;;;6.28;3.45;;;;;;;;;;5157457;27;20050;-78
2023/06/11 12:21:05;;;;;;;7.78;4.05;;;;;;;;;;5157422;27;20125;-77
2023/06/11 12:23:32;;;;;;;6.85;3.88;;;;;;;;;;5157153;27;20042;-77
2023/06/11 12:26:00;;;;;;;8.40;4.03;;;;;;;;;;5157610;27;20514;-77
2023/06/11 12:28:26;;;;;;;8.63;4.03;;;;;;;;;;5157384;27;20345;-77
2023/06/11 12:30:52;;;;;;;6.97;3.90;;;;;;;;;;5156962;27;20046;-77
2023/06/11 12:33:18;;;;;;;5.30;3.95;;;;;;;;;;5157317;27;20043;-78
2023/06/11 12:35:44;;;;;;;7.15;4.05;;;;;;;;;;5138631;27;20047;-78
2023/06/11 12:38:10;;;;;;;7.50;3.65;;;;;;;;;;5155562;27;20050;-78
2023/06/11 12:40:37;;;;;;;6.82;4.22;;;;;;;;;;5156802;27;20201;-78
2023/06/11 12:43:03;;;;;;;7.70;4.05;;;;;;;;;;5156491;27;20087;-78
2023/06/11 12:45:32;;;;;;;9.25;4.22;;;;;;;;;;5137835;27;20046;-78
2023/06/11 12:47:59;;;;;;;27.13;4.65;;;;;;;;;;5156970;27;20103;-78
2023/06/11 12:50:25;;;;;;;6.20;3.90;;;;;;;;;;5156592;27;20043;-78
2023/06/11 12:52:51;;;;;;;8.60;4.35;;;;;;;;;;5156775;27;20031;-78
2023/06/11 12:55:18;;;;;;;5.75;4.18;;;;;;;;;;5138310;27;20043;-77
2023/06/11 12:57:44;;;;;;;6.68;4.18;;;;;;;;;;5157213;27;20102;-77
2023/06/11 13:00:11;;;;;;;6.40;4.30;;;;;;;;;;5137806;27;20042;-77
2023/06/11 13:02:38;;;;;;;6.28;4.10;;;;;;;;;;5156889;27;20038;-77
2023/06/11 13:05:04;;;;;;;6.82;4.40;;;;;;;;;;5136826;27;20042;-78
2023/06/11 13:07:30;;;;;;;6.75;4.68;;;;;;;;;;5138214;27;20050;-78
2023/06/11 13:09:57;;;;;;;6.85;4.70;;;;;;;;;;5156056;27;20043;-78
2023/06/11 13:12:27;;;;;;;5.88;4.35;;;;;;;;;;5156858;27;20095;-78
2023/06/11 13:14:53;;;;;;;7.63;4.50;;;;;;;;;;5156420;27;20038;-78
2023/06/11 13:17:20;;;;;;;7.40;4.60;;;;;;;;;;5156774;27;20077;-77
2023/06/11 13:19:46;;;;;;;11.02;4.72;;;;;;;;;;5154719;27;20050;-78
2023/06/11 13:22:14;;;;;;;6.63;4.25;;;;;;;;;;5154458;27;20489;-78
2023/06/11 13:24:41;;;;;;;8.15;4.63;;;;;;;;;;5156583;27;20129;-78
2023/06/11 13:27:08;;;;;;;9.35;4.63;;;;;;;;;;5137950;27;20479;-78
2023/06/11 13:29:34;;;;;;;8.05;4.63;;;;;;;;;;5155886;27;20047;-78
2023/06/11 13:32:00;;;;;;;9.23;5.10;;;;;;;;;;5137618;27;20038;-78
2023/06/11 13:34:26;;;;;;;6.97;4.60;;;;;;;;;;5154963;27;20129;-78
2023/06/11 13:36:55;;;;;;;6.10;4.63;;;;;;;;;;5153813;27;20042;-78
2023/06/11 13:39:23;;;;;;;7.78;4.70;;;;;;;;;;5155510;27;20039;-78
2023/06/11 13:41:49;;;;;;;8.48;4.70;;;;;;;;;;5155809;27;20244;-77
2023/06/11 13:44:15;;;;;;;8.25;4.57;;;;;;;;;;5137339;27;20122;-77
2023/06/11 13:46:41;;;;;;;10.38;4.82;;;;;;;;;;5137266;27;20043;-78
2023/06/11 13:49:07;;;;;;;7.05;4.60;;;;;;;;;;5155788;27;20049;-78
2023/06/11 13:51:34;;;;;;;8.60;4.65;;;;;;;;;;5135486;27;20043;-78
2023/06/11 13:54:01;;;;;;;8.48;4.65;;;;;;;;;;5155470;27;20498;-78
2023/06/11 13:56:27;;;;;;;8.68;4.60;;;;;;;;;;5137448;27;20317;-78
2023/06/11 13:58:53;;;;;;;6.75;4.50;;;;;;;;;;5155535;27;20515;-78
2023/06/11 14:01:19;;;;;;;9.88;4.97;;;;;;;;;;5136989;27;20129;-78
2023/06/11 14:03:45;;;;;;;6.85;4.40;;;;;;;;;;5155651;27;20036;-77
2023/06/11 14:06:12;;;;;;;8.25;4.53;;;;;;;;;;5155483;27;20138;-77
2023/06/11 14:08:38;;;;;;;6.88;4.38;;;;;;;;;;5154944;27;20050;-77
2023/06/11 14:11:04;;;;;;;7.70;4.45;;;;;;;;;;5155271;27;20046;-78
2023/06/11 14:13:30;;;;;;;6.28;4.70;;;;;;;;;;5153746;27;20403;-78
2023/06/11 14:15:57;;;;;;;7.57;4.65;;;;;;;;;;5135519;27;20054;-78
2023/06/11 14:18:23;;;;;;;8.13;4.60;;;;;;;;;;5119778;27;20491;-77
2023/06/11 14:20:49;;;;;;;10.70;5.00;;;;;;;;;;5155029;27;20038;-77
2023/06/11 14:23:15;;;;;;;7.00;4.53;;;;;;;;;;5154746;27;20422;-77
2023/06/11 14:25:41;;;;;;;8.00;4.78;;;;;;;;;;5155116;27;20050;-77
2023/06/11 14:28:07;;;;;;;7.35;4.68;;;;;;;;;;5155001;27;20102;-77
2023/06/11 14:30:33;;;;;;;7.18;4.80;;;;;;;;;;5154788;27;20447;-77
2023/06/11 14:32:59;;;;;;;8.07;5.07;;;;;;;;;;5153812;27;20125;-77
2023/06/11 14:35:26;;;;;;;9.07;4.60;;;;;;;;;;5153382;27;20043;-77